sensor_id;sensor_type;location;lat;lon;timestamp;pressure;altitude;pressure_sealevel;temperature;humidity
79142;BME280;68550;-26.480;29.234;2023-04-01T00:01:23;84457.32;;;23.90;28.57
79142;BME280;68550;-26.480;29.234;2023-04-01T00:03:47;84455.94;;;24.13;28.56
79142;BME280;68550;-26.480;29.234;2023-04-01T00:06:15;84458.56;;;24.21;28.49
79142;BME280;68550;-26.480;29.234;2023-04-01T00:08:38;84459.08;;;24.13;28.51
79142;BME280;68550;-26.480;29.234;2023-04-01T00:11:05;84458.96;;;24.46;28.42
79142;BME280;68550;-26.480;29.234;2023-04-01T00:13:29;84463.48;;;24.10;28.48
79142;BME280;68550;-26.480;29.234;2023-04-01T00:15:55;84463.70;;;24.10;28.52
79142;BME280;68550;-26.480;29.234;2023-04-01T00:18:20;84464.38;;;23.87;28.47
79142;BME280;68550;-26.480;29.234;2023-04-01T00:20:46;84464.62;;;23.80;28.51
79142;BME280;68550;-26.480;29.234;2023-04-01T00:23:10;84462.29;;;24.28;28.50
79142;BME280;68550;-26.480;29.234;2023-04-01T00:25:36;84461.62;;;24.00;28.57
79142;BME280;68550;-26.480;29.234;2023-04-01T00:28:02;84463.98;;;24.02;28.55
79142;BME280;68550;-26.480;29.234;2023-04-01T00:30:27;84463.82;;;24.04;28.50
79142;BME280;68550;-26.480;29.234;2023-04-01T00:32:52;84461.09;;;23.92;28.62
79142;BME280;68550;-26.480;29.234;2023-04-01T00:35:17;84457.49;;;23.95;28.57
79142;BME280;68550;-26.480;29.234;2023-04-01T00:37:45;84457.10;;;24.05;28.55
79142;BME280;68550;-26.480;29.234;2023-04-01T00:40:21;84455.92;;;24.25;28.55
79142;BME280;68550;-26.480;29.234;2023-04-01T00:42:34;84457.62;;;24.10;28.50
79142;BME280;68550;-26.480;29.234;2023-04-01T00:47:25;84458.27;;;24.06;28.49
79142;BME280;68550;-26.480;29.234;2023-04-01T00:49:51;84455.75;;;24.11;28.45
79142;BME280;68550;-26.480;29.234;2023-04-01T00:52:19;84456.94;;;24.05;28.44
79142;BME280;68550;-26.480;29.234;2023-04-01T00:54:42;84461.59;;;24.13;28.34
79142;BME280;68550;-26.480;29.234;2023-04-01T00:57:12;84464.46;;;24.09;28.33
79142;BME280;68550;-26.480;29.234;2023-04-01T00:59:34;84463.68;;;24.18;28.31
79142;BME280;68550;-26.480;29.234;2023-04-01T01:01:57;84462.87;;;24.18;28.21
79142;BME280;68550;-26.480;29.234;2023-04-01T01:06:19;84463.44;;;22.54;30.91
79142;BME280;68550;-26.480;29.234;2023-04-01T01:08:52;84463.27;;;22.80;30.03
79142;BME280;68550;-26.480;29.234;2023-04-01T01:11:04;84461.65;;;23.34;29.48
79142;BME280;68550;-26.480;29.234;2023-04-01T01:13:33;84460.65;;;23.52;29.26
79142;BME280;68550;-26.480;29.234;2023-04-01T01:15:57;84463.66;;;23.85;28.82
79142;BME280;68550;-26.480;29.234;2023-04-01T01:18:22;84463.79;;;23.68;28.76
79142;BME280;68550;-26.480;29.234;2023-04-01T01:25:41;84460.31;;;24.08;28.58
79142;BME280;68550;-26.480;29.234;2023-04-01T01:42:47;84455.77;;;24.11;28.18
79142;BME280;68550;-26.480;29.234;2023-04-01T01:44:58;84455.90;;;23.93;28.08
79142;BME280;68550;-26.480;29.234;2023-04-01T01:47:23;84455.46;;;24.13;28.09
79142;BME280;68550;-26.480;29.234;2023-04-01T01:49:52;84457.54;;;24.32;28.10
79142;BME280;68550;-26.480;29.234;2023-04-01T01:52:14;84458.47;;;24.22;28.16
79142;BME280;68550;-26.480;29.234;2023-04-01T01:54:47;84460.29;;;23.98;28.09
79142;BME280;68550;-26.480;29.234;2023-04-01T01:59:30;84459.81;;;23.84;28.16
79142;BME280;68550;-26.480;29.234;2023-04-01T02:01:57;84462.06;;;23.90;28.16
79142;BME280;68550;-26.480;29.234;2023-04-01T02:04:20;84463.11;;;24.11;28.21
79142;BME280;68550;-26.480;29.234;2023-04-01T02:06:50;84462.28;;;24.03;28.31
79142;BME280;68550;-26.480;29.234;2023-04-01T02:16:31;84454.29;;;23.74;28.21
79142;BME280;68550;-26.480;29.234;2023-04-01T02:18:53;84455.89;;;23.77;28.15
79142;BME280;68550;-26.480;29.234;2023-04-01T02:21:18;84455.73;;;24.00;28.21
79142;BME280;68550;-26.480;29.234;2023-04-01T02:23:43;84456.25;;;23.90;28.31
79142;BME280;68550;-26.480;29.234;2023-04-01T02:26:12;84453.92;;;23.65;28.23
79142;BME280;68550;-26.480;29.234;2023-04-01T02:28:34;84453.97;;;23.88;28.26
79142;BME280;68550;-26.480;29.234;2023-04-01T02:31:00;84457.17;;;23.90;28.20
79142;BME280;68550;-26.480;29.234;2023-04-01T02:47:57;84464.12;;;23.62;27.79
79142;BME280;68550;-26.480;29.234;2023-04-01T02:50:23;84468.75;;;23.66;28.04
79142;BME280;68550;-26.480;29.234;2023-04-01T02:52:48;84472.28;;;23.69;27.95
79142;BME280;68550;-26.480;29.234;2023-04-01T02:55:13;84468.31;;;23.70;27.94
79142;BME280;68550;-26.480;29.234;2023-04-01T02:57:38;84471.68;;;23.70;27.94
79142;BME280;68550;-26.480;29.234;2023-04-01T03:00:04;84472.66;;;23.83;27.92
79142;BME280;68550;-26.480;29.234;2023-04-01T03:04:25;84487.65;;;23.28;28.54
79142;BME280;68550;-26.480;29.234;2023-04-01T03:06:45;84486.11;;;23.33;28.18
79142;BME280;68550;-26.480;29.234;2023-04-01T03:09:10;84487.71;;;23.58;28.13
79142;BME280;68550;-26.480;29.234;2023-04-01T03:11:36;84487.58;;;23.40;28.00
79142;BME280;68550;-26.480;29.234;2023-04-01T03:14:02;84489.28;;;23.68;27.91
79142;BME280;68550;-26.480;29.234;2023-04-01T03:16:26;84489.59;;;23.65;27.92
79142;BME280;68550;-26.480;29.234;2023-04-01T03:18:52;84489.69;;;23.63;27.94
79142;BME280;68550;-26.480;29.234;2023-04-01T03:21:20;84489.78;;;23.54;28.02
79142;BME280;68550;-26.480;29.234;2023-04-01T03:23:43;84492.27;;;23.54;28.04
79142;BME280;68550;-26.480;29.234;2023-04-01T03:26:09;84497.15;;;23.57;27.95
79142;BME280;68550;-26.480;29.234;2023-04-01T03:28:33;84501.98;;;23.57;27.98
79142;BME280;68550;-26.480;29.234;2023-04-01T03:30:59;84505.61;;;23.51;27.99
79142;BME280;68550;-26.480;29.234;2023-04-01T03:33:24;84505.00;;;23.51;27.93
79142;BME280;68550;-26.480;29.234;2023-04-01T03:35:49;84507.23;;;23.50;27.99
79142;BME280;68550;-26.480;29.234;2023-04-01T03:38:15;84507.78;;;23.50;27.91
79142;BME280;68550;-26.480;29.234;2023-04-01T03:40:43;84505.76;;;23.50;27.97
79142;BME280;68550;-26.480;29.234;2023-04-01T03:43:05;84506.40;;;23.57;27.85
79142;BME280;68550;-26.480;29.234;2023-04-01T03:45:30;84505.36;;;23.29;27.81
79142;BME280;68550;-26.480;29.234;2023-04-01T03:47:59;84506.53;;;23.43;27.93
79142;BME280;68550;-26.480;29.234;2023-04-01T03:50:21;84505.87;;;23.54;27.86
79142;BME280;68550;-26.480;29.234;2023-04-01T03:52:48;84513.14;;;23.75;27.74
79142;BME280;68550;-26.480;29.234;2023-04-01T03:55:13;84513.50;;;23.50;27.71
79142;BME280;68550;-26.480;29.234;2023-04-01T03:57:38;84515.59;;;23.50;27.70
79142;BME280;68550;-26.480;29.234;2023-04-01T04:00:05;84516.45;;;23.51;27.65
79142;BME280;68550;-26.480;29.234;2023-04-01T04:02:29;84517.31;;;23.54;27.60
79142;BME280;68550;-26.480;29.234;2023-04-01T04:04:55;84520.79;;;23.48;27.59
79142;BME280;68550;-26.480;29.234;2023-04-01T04:07:23;84521.31;;;23.49;27.57
79142;BME280;68550;-26.480;29.234;2023-04-01T04:09:45;84523.58;;;23.69;27.65
79142;BME280;68550;-26.480;29.234;2023-04-01T04:12:14;84528.43;;;23.13;27.68
79142;BME280;68550;-26.480;29.234;2023-04-01T04:14:36;84532.62;;;23.36;27.72
79142;BME280;68550;-26.480;29.234;2023-04-01T04:17:01;84532.59;;;23.33;27.81
79142;BME280;68550;-26.480;29.234;2023-04-01T04:19:30;84533.71;;;23.33;27.71
79142;BME280;68550;-26.480;29.234;2023-04-01T04:21:51;84535.18;;;23.37;27.67
79142;BME280;68550;-26.480;29.234;2023-04-01T04:24:20;84533.22;;;23.42;27.60
79142;BME280;68550;-26.480;29.234;2023-04-01T04:26:46;84531.96;;;23.64;27.63
79142;BME280;68550;-26.480;29.234;2023-04-01T04:29:07;84534.49;;;23.69;27.66
79142;BME280;68550;-26.480;29.234;2023-04-01T04:31:33;84537.89;;;23.37;27.75
79142;BME280;68550;-26.480;29.234;2023-04-01T04:34:00;84542.22;;;23.61;27.73
79142;BME280;68550;-26.480;29.234;2023-04-01T04:36:24;84544.43;;;23.40;27.63
79142;BME280;68550;-26.480;29.234;2023-04-01T04:38:49;84545.39;;;23.43;27.61
79142;BME280;68550;-26.480;29.234;2023-04-01T04:41:16;84548.44;;;23.39;27.64
79142;BME280;68550;-26.480;29.234;2023-04-01T04:43:39;84547.47;;;23.29;27.63
79142;BME280;68550;-26.480;29.234;2023-04-01T04:46:06;84547.11;;;23.35;27.57
79142;BME280;68550;-26.480;29.234;2023-04-01T04:48:30;84545.04;;;23.36;27.53
79142;BME280;68550;-26.480;29.234;2023-04-01T04:50:55;84547.11;;;23.34;27.52
79142;BME280;68550;-26.480;29.234;2023-04-01T04:53:20;84546.02;;;23.36;27.42
79142;BME280;68550;-26.480;29.234;2023-04-01T04:55:47;84549.96;;;23.46;27.32
79142;BME280;68550;-26.480;29.234;2023-04-01T04:58:11;84551.50;;;23.44;27.36
79142;BME280;68550;-26.480;29.234;2023-04-01T05:00:39;84556.36;;;23.48;27.36
79142;BME280;68550;-26.480;29.234;2023-04-01T05:03:02;84560.22;;;23.33;27.50
79142;BME280;68550;-26.480;29.234;2023-04-01T05:05:27;84562.87;;;23.41;27.47
79142;BME280;68550;-26.480;29.234;2023-04-01T05:07:53;84568.11;;;23.39;27.53
79142;BME280;68550;-26.480;29.234;2023-04-01T05:10:19;84572.29;;;23.39;27.54
79142;BME280;68550;-26.480;29.234;2023-04-01T05:12:45;84576.81;;;23.51;27.51
79142;BME280;68550;-26.480;29.234;2023-04-01T05:15:09;84578.58;;;23.48;27.48
79142;BME280;68550;-26.480;29.234;2023-04-01T05:17:34;84580.11;;;23.48;27.46
79142;BME280;68550;-26.480;29.234;2023-04-01T05:20:00;84584.00;;;23.56;27.43
79142;BME280;68550;-26.480;29.234;2023-04-01T05:22:27;84586.36;;;23.52;27.56
79142;BME280;68550;-26.480;29.234;2023-04-01T05:24:52;84588.47;;;23.58;27.56
79142;BME280;68550;-26.480;29.234;2023-04-01T05:27:16;84593.00;;;23.66;27.58
79142;BME280;68550;-26.480;29.234;2023-04-01T05:29:41;84596.49;;;23.63;27.67
79142;BME280;68550;-26.480;29.234;2023-04-01T05:32:07;84598.70;;;23.71;27.68
79142;BME280;68550;-26.480;29.234;2023-04-01T05:34:32;84601.20;;;23.74;27.67
79142;BME280;68550;-26.480;29.234;2023-04-01T05:36:57;84600.78;;;23.75;27.76
79142;BME280;68550;-26.480;29.234;2023-04-01T05:39:28;84602.29;;;23.53;27.83
79142;BME280;68550;-26.480;29.234;2023-04-01T05:41:48;84604.98;;;23.77;27.87
79142;BME280;68550;-26.480;29.234;2023-04-01T05:44:13;84610.06;;;23.87;27.95
79142;BME280;68550;-26.480;29.234;2023-04-01T05:46:38;84614.41;;;22.98;28.78
79142;BME280;68550;-26.480;29.234;2023-04-01T05:49:04;84612.48;;;23.59;28.53
79142;BME280;68550;-26.480;29.234;2023-04-01T05:51:30;84615.43;;;23.63;28.54
79142;BME280;68550;-26.480;29.234;2023-04-01T05:53:55;84617.31;;;23.64;28.67
79142;BME280;68550;-26.480;29.234;2023-04-01T05:56:21;84626.21;;;23.49;28.93
79142;BME280;68550;-26.480;29.234;2023-04-01T05:58:50;84627.75;;;23.19;28.72
79142;BME280;68550;-26.480;29.234;2023-04-01T06:01:12;84628.99;;;23.67;28.77
79142;BME280;68550;-26.480;29.234;2023-04-01T06:03:39;84629.93;;;23.65;28.77
79142;BME280;68550;-26.480;29.234;2023-04-01T06:06:03;84631.59;;;23.75;28.78
79142;BME280;68550;-26.480;29.234;2023-04-01T06:08:30;84632.00;;;23.76;28.89
79142;BME280;68550;-26.480;29.234;2023-04-01T06:11:03;84631.49;;;23.58;28.82
79142;BME280;68550;-26.480;29.234;2023-04-01T06:13:25;84633.50;;;23.70;28.69
79142;BME280;68550;-26.480;29.234;2023-04-01T06:15:51;84634.10;;;23.84;29.10
79142;BME280;68550;-26.480;29.234;2023-04-01T06:20:41;84636.93;;;24.16;29.05
79142;BME280;68550;-26.480;29.234;2023-04-01T06:25:35;84642.79;;;24.33;28.90
79142;BME280;68550;-26.480;29.234;2023-04-01T06:28:03;84647.07;;;24.08;29.06
79142;BME280;68550;-26.480;29.234;2023-04-01T06:32:57;84655.85;;;23.74;31.08
79142;BME280;68550;-26.480;29.234;2023-04-01T06:35:17;84657.31;;;23.58;31.80
79142;BME280;68550;-26.480;29.234;2023-04-01T06:40:04;84655.93;;;23.17;32.73
79142;BME280;68550;-26.480;29.234;2023-04-01T06:42:30;84658.10;;;23.25;32.70
79142;BME280;68550;-26.480;29.234;2023-04-01T06:44:55;84661.83;;;23.08;32.93
79142;BME280;68550;-26.480;29.234;2023-04-01T06:47:23;84661.34;;;23.03;33.20
79142;BME280;68550;-26.480;29.234;2023-04-01T06:49:48;84662.22;;;23.03;33.37
79142;BME280;68550;-26.480;29.234;2023-04-01T06:52:14;84660.80;;;23.10;33.40
79142;BME280;68550;-26.480;29.234;2023-04-01T06:54:33;84660.84;;;23.05;33.56
79142;BME280;68550;-26.480;29.234;2023-04-01T06:56:58;84664.67;;;22.92;33.77
79142;BME280;68550;-26.480;29.234;2023-04-01T06:59:26;84660.36;;;23.06;33.85
79142;BME280;68550;-26.480;29.234;2023-04-01T07:01:52;84660.44;;;22.95;34.14
79142;BME280;68550;-26.480;29.234;2023-04-01T07:04:15;84654.54;;;23.00;34.33
79142;BME280;68550;-26.480;29.234;2023-04-01T07:06:40;84660.47;;;23.11;34.33
79142;BME280;68550;-26.480;29.234;2023-04-01T07:09:05;84659.83;;;23.05;34.52
79142;BME280;68550;-26.480;29.234;2023-04-01T07:11:31;84663.30;;;23.23;34.34
79142;BME280;68550;-26.480;29.234;2023-04-01T07:13:54;84658.16;;;23.43;34.36
79142;BME280;68550;-26.480;29.234;2023-04-01T07:16:21;84657.69;;;23.58;34.02
79142;BME280;68550;-26.480;29.234;2023-04-01T07:18:47;84660.00;;;23.47;33.88
79142;BME280;68550;-26.480;29.234;2023-04-01T07:21:12;84664.10;;;23.74;33.88
79142;BME280;68550;-26.480;29.234;2023-04-01T07:23:36;84661.66;;;23.48;33.91
79142;BME280;68550;-26.480;29.234;2023-04-01T07:26:04;84658.92;;;23.72;34.00
79142;BME280;68550;-26.480;29.234;2023-04-01T07:28:23;84660.66;;;23.24;34.46
79142;BME280;68550;-26.480;29.234;2023-04-01T07:30:57;84664.09;;;23.47;33.90
79142;BME280;68550;-26.480;29.234;2023-04-01T07:33:19;84660.50;;;23.50;33.88
79142;BME280;68550;-26.480;29.234;2023-04-01T07:35:45;84667.26;;;23.55;34.04
79142;BME280;68550;-26.480;29.234;2023-04-01T07:38:16;84665.32;;;23.49;33.91
79142;BME280;68550;-26.480;29.234;2023-04-01T07:40:37;84667.52;;;23.85;33.88
79142;BME280;68550;-26.480;29.234;2023-04-01T07:45:27;84662.86;;;23.77;33.85
79142;BME280;68550;-26.480;29.234;2023-04-01T07:47:59;84665.13;;;23.97;34.16
79142;BME280;68550;-26.480;29.234;2023-04-01T07:50:21;84659.10;;;23.67;33.68
79142;BME280;68550;-26.480;29.234;2023-04-01T07:52:46;84662.24;;;24.13;33.15
79142;BME280;68550;-26.480;29.234;2023-04-01T07:55:08;84662.10;;;24.00;33.96
79142;BME280;68550;-26.480;29.234;2023-04-01T07:57:35;84660.22;;;24.00;34.00
79142;BME280;68550;-26.480;29.234;2023-04-01T08:00:00;84660.76;;;24.09;33.88
79142;BME280;68550;-26.480;29.234;2023-04-01T08:02:30;84661.57;;;23.85;33.57
79142;BME280;68550;-26.480;29.234;2023-04-01T08:04:54;84661.36;;;24.33;33.50
79142;BME280;68550;-26.480;29.234;2023-04-01T08:07:15;84657.92;;;23.86;33.58
79142;BME280;68550;-26.480;29.234;2023-04-01T08:09:44;84654.06;;;24.46;33.23
79142;BME280;68550;-26.480;29.234;2023-04-01T08:12:11;84655.35;;;24.46;32.87
79142;BME280;68550;-26.480;29.234;2023-04-01T08:14:33;84651.87;;;24.33;33.12
79142;BME280;68550;-26.480;29.234;2023-04-01T08:16:58;84651.66;;;24.39;32.98
79142;BME280;68550;-26.480;29.234;2023-04-01T08:19:25;84649.58;;;24.21;32.87
79142;BME280;68550;-26.480;29.234;2023-04-01T08:21:49;84648.57;;;24.21;33.11
79142;BME280;68550;-26.480;29.234;2023-04-01T08:24:13;84650.03;;;24.72;32.54
79142;BME280;68550;-26.480;29.234;2023-04-01T08:26:36;84648.61;;;24.59;32.41
79142;BME280;68550;-26.480;29.234;2023-04-01T08:29:02;84644.39;;;24.63;32.34
79142;BME280;68550;-26.480;29.234;2023-04-01T08:31:29;84639.56;;;24.57;32.43
79142;BME280;68550;-26.480;29.234;2023-04-01T08:33:54;84637.75;;;24.58;32.45
79142;BME280;68550;-26.480;29.234;2023-04-01T08:36:16;84635.39;;;24.77;32.21
79142;BME280;68550;-26.480;29.234;2023-04-01T08:38:42;84634.13;;;24.66;32.07
79142;BME280;68550;-26.480;29.234;2023-04-01T08:51:00;84618.66;;;25.00;31.84
79142;BME280;68550;-26.480;29.234;2023-04-01T08:53:17;84614.32;;;24.83;31.75
79142;BME280;68550;-26.480;29.234;2023-04-01T08:55:59;84610.29;;;24.60;31.65
79142;BME280;68550;-26.480;29.234;2023-04-01T08:58:22;84608.67;;;25.10;31.62
79142;BME280;68550;-26.480;29.234;2023-04-01T09:00:31;84607.76;;;25.08;31.69
79142;BME280;68550;-26.480;29.234;2023-04-01T09:07:23;84601.73;;;23.57;34.17
79142;BME280;68550;-26.480;29.234;2023-04-01T09:09:56;84600.86;;;24.11;33.32
79142;BME280;68550;-26.480;29.234;2023-04-01T09:17:01;84592.16;;;25.01;31.75
79142;BME280;68550;-26.480;29.234;2023-04-01T09:19:25;84591.33;;;25.15;31.59
79142;BME280;68550;-26.480;29.234;2023-04-01T09:21:52;84593.26;;;24.95;31.48
79142;BME280;68550;-26.480;29.234;2023-04-01T09:24:17;84589.35;;;25.32;31.39
79142;BME280;68550;-26.480;29.234;2023-04-01T09:26:44;84588.48;;;24.86;31.64
79142;BME280;68550;-26.480;29.234;2023-04-01T09:29:10;84586.23;;;23.96;32.40
79142;BME280;68550;-26.480;29.234;2023-04-01T09:34:04;84580.30;;;25.48;31.34
79142;BME280;68550;-26.480;29.234;2023-04-01T09:36:28;84575.93;;;25.24;31.30
79142;BME280;68550;-26.480;29.234;2023-04-01T09:38:52;84570.12;;;25.39;31.12
79142;BME280;68550;-26.480;29.234;2023-04-01T09:41:14;84565.50;;;25.14;31.15
79142;BME280;68550;-26.480;29.234;2023-04-01T09:43:41;84563.90;;;25.13;31.26
79142;BME280;68550;-26.480;29.234;2023-04-01T09:46:09;84562.84;;;25.14;31.22
79142;BME280;68550;-26.480;29.234;2023-04-01T09:48:36;84555.38;;;25.46;31.16
79142;BME280;68550;-26.480;29.234;2023-04-01T09:50:53;84555.00;;;25.40;31.24
79142;BME280;68550;-26.480;29.234;2023-04-01T09:53:26;84552.47;;;25.19;31.23
79142;BME280;68550;-26.480;29.234;2023-04-01T10:12:46;84523.10;;;25.48;31.15
79142;BME280;68550;-26.480;29.234;2023-04-01T10:17:44;84520.51;;;25.54;31.01
79142;BME280;68550;-26.480;29.234;2023-04-01T10:20:03;84518.89;;;25.28;31.01
79142;BME280;68550;-26.480;29.234;2023-04-01T10:24:56;84508.20;;;25.26;30.98
79142;BME280;68550;-26.480;29.234;2023-04-01T10:27:21;84507.58;;;25.77;30.99
79142;BME280;68550;-26.480;29.234;2023-04-01T10:36:53;84500.46;;;25.11;30.74
79142;BME280;68550;-26.480;29.234;2023-04-01T10:41:49;84488.85;;;25.81;30.62
79142;BME280;68550;-26.480;29.234;2023-04-01T10:44:12;84491.02;;;25.37;30.64
79142;BME280;68550;-26.480;29.234;2023-04-01T10:49:11;84483.95;;;25.37;30.74
79142;BME280;68550;-26.480;29.234;2023-04-01T11:22:50;84465.11;;;25.98;30.20
79142;BME280;68550;-26.480;29.234;2023-04-01T11:25:09;84461.03;;;25.54;30.20
79142;BME280;68550;-26.480;29.234;2023-04-01T11:30:00;84465.49;;;25.48;30.35
79142;BME280;68550;-26.480;29.234;2023-04-01T11:32:27;84459.22;;;25.57;30.23
79142;BME280;68550;-26.480;29.234;2023-04-01T11:34:59;84454.52;;;25.70;30.04
79142;BME280;68550;-26.480;29.234;2023-04-01T11:37:15;84453.76;;;25.96;30.02
79142;BME280;68550;-26.480;29.234;2023-04-01T11:39:36;84450.66;;;25.74;29.98
79142;BME280;68550;-26.480;29.234;2023-04-01T11:42:07;84444.93;;;25.73;29.99
79142;BME280;68550;-26.480;29.234;2023-04-01T11:44:24;84444.92;;;25.69;30.06
79142;BME280;68550;-26.480;29.234;2023-04-01T11:47:03;84441.63;;;25.63;30.06
79142;BME280;68550;-26.480;29.234;2023-04-01T11:49:26;84442.22;;;25.68;30.11
79142;BME280;68550;-26.480;29.234;2023-04-01T11:51:52;84442.28;;;25.35;29.96
79142;BME280;68550;-26.480;29.234;2023-04-01T11:54:11;84438.83;;;25.71;29.94
79142;BME280;68550;-26.480;29.234;2023-04-01T12:01:25;84429.70;;;25.62;30.12
79142;BME280;68550;-26.480;29.234;2023-04-01T12:04:02;84428.79;;;25.82;29.92
79142;BME280;68550;-26.480;29.234;2023-04-01T12:06:15;84427.35;;;25.54;29.99
79142;BME280;68550;-26.480;29.234;2023-04-01T12:08:44;84428.80;;;25.84;29.82
79142;BME280;68550;-26.480;29.234;2023-04-01T12:11:07;84427.91;;;25.85;29.94
79142;BME280;68550;-26.480;29.234;2023-04-01T12:13:34;84426.79;;;25.76;29.97
79142;BME280;68550;-26.480;29.234;2023-04-01T12:16:00;84422.06;;;25.90;29.90
79142;BME280;68550;-26.480;29.234;2023-04-01T12:18:20;84421.83;;;25.48;30.12
79142;BME280;68550;-26.480;29.234;2023-04-01T12:20:50;84423.28;;;25.85;29.98
79142;BME280;68550;-26.480;29.234;2023-04-01T12:23:22;84424.23;;;25.90;29.85
79142;BME280;68550;-26.480;29.234;2023-04-01T12:25:51;84422.48;;;25.98;29.77
79142;BME280;68550;-26.480;29.234;2023-04-01T12:28:12;84421.96;;;25.72;29.75
79142;BME280;68550;-26.480;29.234;2023-04-01T12:30:33;84422.53;;;26.00;29.63
79142;BME280;68550;-26.480;29.234;2023-04-01T12:32:52;84422.38;;;25.78;29.61
79142;BME280;68550;-26.480;29.234;2023-04-01T12:35:22;84423.05;;;25.77;29.50
79142;BME280;68550;-26.480;29.234;2023-04-01T12:37:47;84420.78;;;25.96;29.62
79142;BME280;68550;-26.480;29.234;2023-04-01T12:42:46;84423.66;;;25.99;29.51
79142;BME280;68550;-26.480;29.234;2023-04-01T12:45:04;84423.49;;;26.03;29.51
79142;BME280;68550;-26.480;29.234;2023-04-01T13:04:32;84412.40;;;26.18;28.55
79142;BME280;68550;-26.480;29.234;2023-04-01T13:06:53;84411.45;;;25.86;28.62
79142;BME280;68550;-26.480;29.234;2023-04-01T13:09:18;84410.78;;;26.12;28.44
79142;BME280;68550;-26.480;29.234;2023-04-01T13:11:40;84404.59;;;25.82;28.44
79142;BME280;68550;-26.480;29.234;2023-04-01T13:14:15;84405.26;;;26.05;28.37
79142;BME280;68550;-26.480;29.234;2023-04-01T13:16:25;84404.12;;;25.94;28.39
79142;BME280;68550;-26.480;29.234;2023-04-01T13:18:58;84402.18;;;25.74;28.20
79142;BME280;68550;-26.480;29.234;2023-04-01T13:21:20;84403.32;;;25.94;28.15
79142;BME280;68550;-26.480;29.234;2023-04-01T13:23:51;84402.91;;;25.97;28.13
79142;BME280;68550;-26.480;29.234;2023-04-01T13:26:13;84402.69;;;26.00;28.07
79142;BME280;68550;-26.480;29.234;2023-04-01T13:28:33;84400.15;;;25.95;28.12
79142;BME280;68550;-26.480;29.234;2023-04-01T13:31:02;84401.65;;;26.05;28.02
79142;BME280;68550;-26.480;29.234;2023-04-01T13:33:27;84407.32;;;26.08;28.01
79142;BME280;68550;-26.480;29.234;2023-04-01T13:35:52;84406.13;;;26.05;28.05
79142;BME280;68550;-26.480;29.234;2023-04-01T13:40:43;84409.75;;;25.93;27.76
79142;BME280;68550;-26.480;29.234;2023-04-01T13:43:04;84407.05;;;25.92;27.95
79142;BME280;68550;-26.480;29.234;2023-04-01T13:45:34;84403.83;;;25.99;27.87
79142;BME280;68550;-26.480;29.234;2023-04-01T13:57:48;84410.88;;;25.89;27.80
79142;BME280;68550;-26.480;29.234;2023-04-01T14:04:58;84411.85;;;26.23;27.65
79142;BME280;68550;-26.480;29.234;2023-04-01T14:07:25;84411.77;;;26.26;27.73
79142;BME280;68550;-26.480;29.234;2023-04-01T14:09:50;84413.95;;;26.15;27.71
79142;BME280;68550;-26.480;29.234;2023-04-01T14:12:17;84415.20;;;25.96;27.60
79142;BME280;68550;-26.480;29.234;2023-04-01T14:14:43;84418.15;;;26.19;27.58
79142;BME280;68550;-26.480;29.234;2023-04-01T14:19:34;84413.90;;;26.12;27.65
79142;BME280;68550;-26.480;29.234;2023-04-01T14:21:52;84414.97;;;25.92;27.59
79142;BME280;68550;-26.480;29.234;2023-04-01T14:29:16;84420.41;;;26.22;27.60
79142;BME280;68550;-26.480;29.234;2023-04-01T14:31:41;84421.41;;;26.29;27.58
79142;BME280;68550;-26.480;29.234;2023-04-01T14:34:03;84421.52;;;26.20;27.66
79142;BME280;68550;-26.480;29.234;2023-04-01T14:36:28;84419.60;;;26.20;27.68
79142;BME280;68550;-26.480;29.234;2023-04-01T14:38:54;84421.67;;;26.19;27.74
79142;BME280;68550;-26.480;29.234;2023-04-01T14:41:20;84426.59;;;26.26;27.66
79142;BME280;68550;-26.480;29.234;2023-04-01T14:48:33;84429.19;;;26.32;27.63
79142;BME280;68550;-26.480;29.234;2023-04-01T14:50:55;84435.37;;;26.10;27.70
79142;BME280;68550;-26.480;29.234;2023-04-01T14:53:27;84437.45;;;26.28;27.82
79142;BME280;68550;-26.480;29.234;2023-04-01T14:55:51;84436.42;;;26.28;27.91
79142;BME280;68550;-26.480;29.234;2023-04-01T14:58:11;84436.04;;;26.18;28.05
79142;BME280;68550;-26.480;29.234;2023-04-01T15:03:01;84438.21;;;26.16;28.06
79142;BME280;68550;-26.480;29.234;2023-04-01T15:05:32;84436.49;;;25.93;27.98
79142;BME280;68550;-26.480;29.234;2023-04-01T15:08:00;84439.31;;;26.22;27.92
79142;BME280;68550;-26.480;29.234;2023-04-01T15:10:29;84438.86;;;25.97;27.91
79142;BME280;68550;-26.480;29.234;2023-04-01T15:12:48;84442.75;;;26.25;27.79
79142;BME280;68550;-26.480;29.234;2023-04-01T15:15:15;84441.47;;;26.22;27.85
79142;BME280;68550;-26.480;29.234;2023-04-01T15:17:43;84444.84;;;25.99;27.83
79142;BME280;68550;-26.480;29.234;2023-04-01T15:22:36;84442.97;;;26.23;27.55
79142;BME280;68550;-26.480;29.234;2023-04-01T15:24:56;84444.01;;;26.15;27.21
79142;BME280;68550;-26.480;29.234;2023-04-01T15:27:27;84448.67;;;26.31;26.90
79142;BME280;68550;-26.480;29.234;2023-04-01T15:29:50;84448.50;;;26.01;26.88
79142;BME280;68550;-26.480;29.234;2023-04-01T15:32:15;84449.73;;;25.94;26.62
79142;BME280;68550;-26.480;29.234;2023-04-01T15:34:34;84450.97;;;26.10;26.81
79142;BME280;68550;-26.480;29.234;2023-04-01T15:36:59;84450.75;;;26.11;26.62
79142;BME280;68550;-26.480;29.234;2023-04-01T15:39:27;84448.76;;;26.28;26.33
79142;BME280;68550;-26.480;29.234;2023-04-01T15:41:57;84448.67;;;26.30;26.16
79142;BME280;68550;-26.480;29.234;2023-04-01T15:46:45;84452.96;;;26.36;27.23
79142;BME280;68550;-26.480;29.234;2023-04-01T15:49:13;84452.82;;;26.33;26.45
79142;BME280;68550;-26.480;29.234;2023-04-01T15:56:35;84460.36;;;25.95;27.55
79142;BME280;68550;-26.480;29.234;2023-04-01T15:58:53;84464.17;;;25.84;28.24
79142;BME280;68550;-26.480;29.234;2023-04-01T16:01:16;84463.21;;;25.99;28.02
79142;BME280;68550;-26.480;29.234;2023-04-01T16:03:38;84464.64;;;25.86;27.40
79142;BME280;68550;-26.480;29.234;2023-04-01T16:11:00;84466.91;;;26.06;28.26